sensor_id;sensor_type;location;lat;lon;timestamp;P1;durP1;ratioP1;P2;durP2;ratioP2
9138;SDS011;4604;48.616;9.548;2022-12-15T00:00:58;28.67;;;15.50;;
9138;SDS011;4604;48.616;9.548;2022-12-15T00:03:43;28.63;;;15.13;;
9138;SDS011;4604;48.616;9.548;2022-12-15T00:06:29;26.07;;;15.40;;
9138;SDS011;4604;48.616;9.548;2022-12-15T00:09:18;29.10;;;15.43;;
9138;SDS011;4604;48.616;9.548;2022-12-15T00:12:02;26.93;;;14.23;;
9138;SDS011;4604;48.616;9.548;2022-12-15T00:14:47;24.70;;;13.00;;
9138;SDS011;4604;48.616;9.548;2022-12-15T00:17:31;24.60;;;12.53;;
9138;SDS011;4604;48.616;9.548;2022-12-15T00:20:16;25.27;;;13.10;;
9138;SDS011;4604;48.616;9.548;2022-12-15T00:23:06;30.07;;;14.77;;
9138;SDS011;4604;48.616;9.548;2022-12-15T00:25:51;27.10;;;14.47;;
9138;SDS011;4604;48.616;9.548;2022-12-15T00:28:36;27.80;;;14.67;;
9138;SDS011;4604;48.616;9.548;2022-12-15T00:31:20;26.43;;;14.70;;
9138;SDS011;4604;48.616;9.548;2022-12-15T00:34:04;29.47;;;15.33;;
9138;SDS011;4604;48.616;9.548;2022-12-15T00:36:51;25.73;;;14.60;;
9138;SDS011;4604;48.616;9.548;2022-12-15T00:39:36;25.20;;;13.70;;
9138;SDS011;4604;48.616;9.548;2022-12-15T00:42:05;27.73;;;14.80;;
9138;SDS011;4604;48.616;9.548;2022-12-15T00:44:32;27.90;;;14.57;;
9138;SDS011;4604;48.616;9.548;2022-12-15T00:46:59;25.60;;;13.73;;
9138;SDS011;4604;48.616;9.548;2022-12-15T00:49:25;29.60;;;14.37;;
9138;SDS011;4604;48.616;9.548;2022-12-15T00:52:11;27.23;;;13.40;;
9138;SDS011;4604;48.616;9.548;2022-12-15T00:54:57;23.07;;;13.50;;
9138;SDS011;4604;48.616;9.548;2022-12-15T00:57:41;24.10;;;13.13;;
9138;SDS011;4604;48.616;9.548;2022-12-15T01:00:25;24.63;;;12.43;;
9138;SDS011;4604;48.616;9.548;2022-12-15T01:03:10;27.43;;;14.53;;
9138;SDS011;4604;48.616;9.548;2022-12-15T01:05:55;27.80;;;15.67;;
9138;SDS011;4604;48.616;9.548;2022-12-15T01:08:39;32.00;;;16.33;;
9138;SDS011;4604;48.616;9.548;2022-12-15T01:11:25;29.97;;;15.93;;
9138;SDS011;4604;48.616;9.548;2022-12-15T01:14:09;35.47;;;16.13;;
9138;SDS011;4604;48.616;9.548;2022-12-15T01:16:54;28.20;;;15.53;;
9138;SDS011;4604;48.616;9.548;2022-12-15T01:19:38;34.27;;;15.37;;
9138;SDS011;4604;48.616;9.548;2022-12-15T01:22:22;29.87;;;16.40;;
9138;SDS011;4604;48.616;9.548;2022-12-15T01:24:49;28.53;;;16.47;;
9138;SDS011;4604;48.616;9.548;2022-12-15T01:27:17;32.53;;;16.87;;
9138;SDS011;4604;48.616;9.548;2022-12-15T01:29:44;32.20;;;16.37;;
9138;SDS011;4604;48.616;9.548;2022-12-15T01:32:10;30.23;;;15.73;;
9138;SDS011;4604;48.616;9.548;2022-12-15T01:34:37;30.30;;;14.83;;
9138;SDS011;4604;48.616;9.548;2022-12-15T01:37:04;28.63;;;15.77;;
9138;SDS011;4604;48.616;9.548;2022-12-15T01:39:31;27.27;;;14.53;;
9138;SDS011;4604;48.616;9.548;2022-12-15T01:42:13;30.53;;;15.50;;
9138;SDS011;4604;48.616;9.548;2022-12-15T01:44:42;28.67;;;15.20;;
9138;SDS011;4604;48.616;9.548;2022-12-15T01:47:10;25.87;;;13.90;;
9138;SDS011;4604;48.616;9.548;2022-12-15T01:49:38;25.63;;;14.60;;
9138;SDS011;4604;48.616;9.548;2022-12-15T01:52:06;28.07;;;14.43;;
9138;SDS011;4604;48.616;9.548;2022-12-15T01:54:35;27.90;;;14.47;;
9138;SDS011;4604;48.616;9.548;2022-12-15T01:57:08;26.07;;;14.03;;
9138;SDS011;4604;48.616;9.548;2022-12-15T01:59:40;28.43;;;14.93;;
9138;SDS011;4604;48.616;9.548;2022-12-15T02:02:14;27.40;;;14.97;;
9138;SDS011;4604;48.616;9.548;2022-12-15T02:04:42;27.43;;;13.70;;
9138;SDS011;4604;48.616;9.548;2022-12-15T02:07:11;30.10;;;15.07;;
9138;SDS011;4604;48.616;9.548;2022-12-15T02:09:38;27.07;;;14.30;;
9138;SDS011;4604;48.616;9.548;2022-12-15T02:12:08;27.43;;;13.33;;
9138;SDS011;4604;48.616;9.548;2022-12-15T02:14:52;26.43;;;14.17;;
9138;SDS011;4604;48.616;9.548;2022-12-15T02:17:30;27.40;;;13.93;;
9138;SDS011;4604;48.616;9.548;2022-12-15T02:26:38;27.97;;;14.03;;
9138;SDS011;4604;48.616;9.548;2022-12-15T02:29:25;28.50;;;14.40;;
9138;SDS011;4604;48.616;9.548;2022-12-15T02:32:07;28.30;;;14.73;;
9138;SDS011;4604;48.616;9.548;2022-12-15T02:34:38;31.10;;;14.50;;
9138;SDS011;4604;48.616;9.548;2022-12-15T02:37:10;27.87;;;15.00;;
9138;SDS011;4604;48.616;9.548;2022-12-15T02:39:39;28.30;;;14.93;;
9138;SDS011;4604;48.616;9.548;2022-12-15T02:42:07;26.20;;;14.67;;
9138;SDS011;4604;48.616;9.548;2022-12-15T02:44:36;25.70;;;14.00;;
9138;SDS011;4604;48.616;9.548;2022-12-15T02:47:17;33.60;;;15.53;;
9138;SDS011;4604;48.616;9.548;2022-12-15T02:49:56;27.93;;;14.17;;
9138;SDS011;4604;48.616;9.548;2022-12-15T02:52:52;30.03;;;13.80;;
9138;SDS011;4604;48.616;9.548;2022-12-15T02:55:31;29.90;;;15.53;;
9138;SDS011;4604;48.616;9.548;2022-12-15T02:58:05;28.07;;;15.77;;
9138;SDS011;4604;48.616;9.548;2022-12-15T03:00:40;28.30;;;14.13;;
9138;SDS011;4604;48.616;9.548;2022-12-15T03:03:11;31.57;;;16.07;;
9138;SDS011;4604;48.616;9.548;2022-12-15T03:05:44;30.53;;;15.87;;
9138;SDS011;4604;48.616;9.548;2022-12-15T03:08:11;29.23;;;14.23;;
9138;SDS011;4604;48.616;9.548;2022-12-15T03:10:37;31.33;;;14.73;;
9138;SDS011;4604;48.616;9.548;2022-12-15T03:13:04;32.00;;;16.13;;
9138;SDS011;4604;48.616;9.548;2022-12-15T03:15:31;32.47;;;14.97;;
9138;SDS011;4604;48.616;9.548;2022-12-15T03:17:57;30.90;;;14.73;;
9138;SDS011;4604;48.616;9.548;2022-12-15T03:20:25;27.13;;;14.07;;
9138;SDS011;4604;48.616;9.548;2022-12-15T03:22:52;26.57;;;13.60;;
9138;SDS011;4604;48.616;9.548;2022-12-15T03:25:19;28.53;;;14.60;;
9138;SDS011;4604;48.616;9.548;2022-12-15T03:27:45;27.27;;;13.90;;
9138;SDS011;4604;48.616;9.548;2022-12-15T03:30:12;29.43;;;15.00;;
9138;SDS011;4604;48.616;9.548;2022-12-15T03:32:39;29.23;;;14.27;;
9138;SDS011;4604;48.616;9.548;2022-12-15T03:35:07;28.43;;;14.47;;
9138;SDS011;4604;48.616;9.548;2022-12-15T03:37:35;31.47;;;15.27;;
9138;SDS011;4604;48.616;9.548;2022-12-15T03:40:01;31.47;;;15.67;;
9138;SDS011;4604;48.616;9.548;2022-12-15T03:42:28;31.57;;;15.20;;
9138;SDS011;4604;48.616;9.548;2022-12-15T03:45:15;32.90;;;15.80;;
9138;SDS011;4604;48.616;9.548;2022-12-15T03:47:43;27.17;;;14.73;;
9138;SDS011;4604;48.616;9.548;2022-12-15T03:50:10;29.27;;;15.47;;
9138;SDS011;4604;48.616;9.548;2022-12-15T03:52:42;30.80;;;14.63;;
9138;SDS011;4604;48.616;9.548;2022-12-15T03:55:09;24.90;;;13.47;;
9138;SDS011;4604;48.616;9.548;2022-12-15T03:57:37;30.77;;;15.93;;
9138;SDS011;4604;48.616;9.548;2022-12-15T04:00:04;28.43;;;15.17;;
9138;SDS011;4604;48.616;9.548;2022-12-15T04:02:31;31.57;;;15.07;;
9138;SDS011;4604;48.616;9.548;2022-12-15T04:04:58;32.47;;;16.83;;
9138;SDS011;4604;48.616;9.548;2022-12-15T04:07:25;31.93;;;15.80;;
9138;SDS011;4604;48.616;9.548;2022-12-15T04:09:53;30.57;;;15.47;;
9138;SDS011;4604;48.616;9.548;2022-12-15T04:12:20;31.97;;;16.07;;
9138;SDS011;4604;48.616;9.548;2022-12-15T04:14:55;36.47;;;16.83;;
9138;SDS011;4604;48.616;9.548;2022-12-15T04:17:24;30.60;;;15.97;;
9138;SDS011;4604;48.616;9.548;2022-12-15T04:19:50;31.40;;;16.50;;
9138;SDS011;4604;48.616;9.548;2022-12-15T04:22:36;32.97;;;16.20;;
9138;SDS011;4604;48.616;9.548;2022-12-15T04:25:10;28.90;;;15.50;;
9138;SDS011;4604;48.616;9.548;2022-12-15T04:27:58;32.60;;;15.40;;
9138;SDS011;4604;48.616;9.548;2022-12-15T04:30:47;34.17;;;16.67;;
9138;SDS011;4604;48.616;9.548;2022-12-15T04:33:36;34.17;;;15.87;;
9138;SDS011;4604;48.616;9.548;2022-12-15T04:36:22;27.97;;;15.67;;
9138;SDS011;4604;48.616;9.548;2022-12-15T04:39:07;28.77;;;14.80;;
9138;SDS011;4604;48.616;9.548;2022-12-15T04:41:52;33.53;;;15.63;;
9138;SDS011;4604;48.616;9.548;2022-12-15T04:44:38;32.87;;;16.27;;
9138;SDS011;4604;48.616;9.548;2022-12-15T04:47:22;33.87;;;16.60;;
9138;SDS011;4604;48.616;9.548;2022-12-15T04:50:06;36.63;;;17.43;;
9138;SDS011;4604;48.616;9.548;2022-12-15T04:52:51;27.97;;;15.23;;
9138;SDS011;4604;48.616;9.548;2022-12-15T04:55:35;28.10;;;14.93;;
9138;SDS011;4604;48.616;9.548;2022-12-15T04:58:21;36.63;;;16.97;;
9138;SDS011;4604;48.616;9.548;2022-12-15T05:01:05;29.77;;;15.23;;
9138;SDS011;4604;48.616;9.548;2022-12-15T05:03:49;34.77;;;16.60;;
9138;SDS011;4604;48.616;9.548;2022-12-15T05:06:34;32.43;;;16.73;;
9138;SDS011;4604;48.616;9.548;2022-12-15T05:09:18;33.97;;;16.73;;
9138;SDS011;4604;48.616;9.548;2022-12-15T05:12:02;32.07;;;17.20;;
9138;SDS011;4604;48.616;9.548;2022-12-15T05:14:48;37.87;;;17.07;;
9138;SDS011;4604;48.616;9.548;2022-12-15T05:17:33;31.07;;;15.63;;
9138;SDS011;4604;48.616;9.548;2022-12-15T05:20:17;30.57;;;15.10;;
9138;SDS011;4604;48.616;9.548;2022-12-15T05:23:00;32.67;;;17.00;;
9138;SDS011;4604;48.616;9.548;2022-12-15T05:25:44;32.13;;;16.23;;
9138;SDS011;4604;48.616;9.548;2022-12-15T05:28:28;31.30;;;16.23;;
9138;SDS011;4604;48.616;9.548;2022-12-15T05:31:14;31.80;;;16.40;;
9138;SDS011;4604;48.616;9.548;2022-12-15T05:33:58;30.40;;;16.37;;
9138;SDS011;4604;48.616;9.548;2022-12-15T05:36:25;30.20;;;15.57;;
9138;SDS011;4604;48.616;9.548;2022-12-15T05:38:52;30.10;;;16.20;;
9138;SDS011;4604;48.616;9.548;2022-12-15T05:41:19;30.53;;;15.57;;
9138;SDS011;4604;48.616;9.548;2022-12-15T05:43:46;29.60;;;15.60;;
9138;SDS011;4604;48.616;9.548;2022-12-15T05:46:14;31.37;;;15.17;;
9138;SDS011;4604;48.616;9.548;2022-12-15T05:48:49;34.27;;;16.60;;
9138;SDS011;4604;48.616;9.548;2022-12-15T05:51:15;36.35;;;19.83;;
9138;SDS011;4604;48.616;9.548;2022-12-15T05:53:42;31.73;;;16.87;;
9138;SDS011;4604;48.616;9.548;2022-12-15T05:56:10;32.00;;;17.17;;
9138;SDS011;4604;48.616;9.548;2022-12-15T05:58:38;31.50;;;16.03;;
9138;SDS011;4604;48.616;9.548;2022-12-15T06:01:07;30.53;;;16.70;;
9138;SDS011;4604;48.616;9.548;2022-12-15T06:03:37;30.63;;;16.80;;
9138;SDS011;4604;48.616;9.548;2022-12-15T06:06:05;32.50;;;15.90;;
9138;SDS011;4604;48.616;9.548;2022-12-15T06:08:32;38.30;;;17.47;;
9138;SDS011;4604;48.616;9.548;2022-12-15T06:11:00;30.60;;;15.97;;
9138;SDS011;4604;48.616;9.548;2022-12-15T06:13:28;30.73;;;15.83;;
9138;SDS011;4604;48.616;9.548;2022-12-15T06:15:56;33.47;;;16.53;;
9138;SDS011;4604;48.616;9.548;2022-12-15T06:18:24;34.77;;;18.73;;
9138;SDS011;4604;48.616;9.548;2022-12-15T06:20:58;34.40;;;17.07;;
9138;SDS011;4604;48.616;9.548;2022-12-15T06:23:26;34.23;;;17.17;;
9138;SDS011;4604;48.616;9.548;2022-12-15T06:25:53;34.03;;;17.27;;
9138;SDS011;4604;48.616;9.548;2022-12-15T06:28:21;39.77;;;22.00;;
9138;SDS011;4604;48.616;9.548;2022-12-15T06:30:49;34.20;;;18.37;;
9138;SDS011;4604;48.616;9.548;2022-12-15T06:33:17;34.83;;;17.00;;
9138;SDS011;4604;48.616;9.548;2022-12-15T06:35:44;30.57;;;16.50;;
9138;SDS011;4604;48.616;9.548;2022-12-15T06:38:13;39.03;;;18.97;;
9138;SDS011;4604;48.616;9.548;2022-12-15T06:40:40;42.20;;;20.27;;
9138;SDS011;4604;48.616;9.548;2022-12-15T06:43:07;41.17;;;21.37;;
9138;SDS011;4604;48.616;9.548;2022-12-15T06:45:34;40.53;;;19.60;;
9138;SDS011;4604;48.616;9.548;2022-12-15T06:48:01;41.90;;;20.63;;
9138;SDS011;4604;48.616;9.548;2022-12-15T06:50:27;41.63;;;21.47;;
9138;SDS011;4604;48.616;9.548;2022-12-15T06:52:54;34.23;;;18.13;;
9138;SDS011;4604;48.616;9.548;2022-12-15T06:55:22;37.37;;;17.80;;
9138;SDS011;4604;48.616;9.548;2022-12-15T06:57:49;35.67;;;17.50;;
9138;SDS011;4604;48.616;9.548;2022-12-15T07:00:16;32.80;;;17.13;;
9138;SDS011;4604;48.616;9.548;2022-12-15T07:02:43;41.73;;;19.90;;
9138;SDS011;4604;48.616;9.548;2022-12-15T07:05:09;30.87;;;15.90;;
9138;SDS011;4604;48.616;9.548;2022-12-15T07:07:36;26.93;;;14.60;;
9138;SDS011;4604;48.616;9.548;2022-12-15T07:10:03;29.70;;;15.07;;
9138;SDS011;4604;48.616;9.548;2022-12-15T07:12:32;27.03;;;14.57;;
9138;SDS011;4604;48.616;9.548;2022-12-15T07:14:59;30.33;;;14.63;;
9138;SDS011;4604;48.616;9.548;2022-12-15T07:17:25;32.93;;;16.43;;
9138;SDS011;4604;48.616;9.548;2022-12-15T07:19:52;32.50;;;16.73;;
9138;SDS011;4604;48.616;9.548;2022-12-15T07:22:19;35.90;;;19.13;;
9138;SDS011;4604;48.616;9.548;2022-12-15T07:24:46;30.93;;;17.07;;
9138;SDS011;4604;48.616;9.548;2022-12-15T07:27:13;33.80;;;18.17;;
9138;SDS011;4604;48.616;9.548;2022-12-15T07:29:43;37.83;;;17.93;;
9138;SDS011;4604;48.616;9.548;2022-12-15T07:32:10;31.53;;;18.03;;
9138;SDS011;4604;48.616;9.548;2022-12-15T07:34:36;34.67;;;18.20;;
9138;SDS011;4604;48.616;9.548;2022-12-15T07:37:03;37.70;;;18.13;;
9138;SDS011;4604;48.616;9.548;2022-12-15T07:39:30;34.63;;;17.93;;
9138;SDS011;4604;48.616;9.548;2022-12-15T07:41:56;33.47;;;18.17;;
9138;SDS011;4604;48.616;9.548;2022-12-15T07:44:23;40.20;;;18.03;;
9138;SDS011;4604;48.616;9.548;2022-12-15T07:46:51;30.90;;;16.30;;
9138;SDS011;4604;48.616;9.548;2022-12-15T07:49:18;43.80;;;20.77;;
9138;SDS011;4604;48.616;9.548;2022-12-15T07:51:45;41.63;;;20.67;;
9138;SDS011;4604;48.616;9.548;2022-12-15T07:54:12;58.57;;;27.13;;
9138;SDS011;4604;48.616;9.548;2022-12-15T07:56:39;46.77;;;23.90;;
9138;SDS011;4604;48.616;9.548;2022-12-15T07:59:06;44.80;;;20.63;;
9138;SDS011;4604;48.616;9.548;2022-12-15T08:01:34;35.90;;;18.20;;
9138;SDS011;4604;48.616;9.548;2022-12-15T08:04:03;41.90;;;21.27;;
9138;SDS011;4604;48.616;9.548;2022-12-15T08:06:30;58.73;;;28.00;;
9138;SDS011;4604;48.616;9.548;2022-12-15T08:08:57;46.83;;;23.70;;
9138;SDS011;4604;48.616;9.548;2022-12-15T08:11:23;36.70;;;19.60;;
9138;SDS011;4604;48.616;9.548;2022-12-15T08:13:50;38.10;;;19.20;;
9138;SDS011;4604;48.616;9.548;2022-12-15T08:16:17;34.80;;;18.33;;
9138;SDS011;4604;48.616;9.548;2022-12-15T08:18:44;41.20;;;19.87;;
9138;SDS011;4604;48.616;9.548;2022-12-15T08:21:12;34.40;;;17.73;;
9138;SDS011;4604;48.616;9.548;2022-12-15T08:23:39;35.17;;;18.30;;
9138;SDS011;4604;48.616;9.548;2022-12-15T08:26:07;36.03;;;18.60;;
9138;SDS011;4604;48.616;9.548;2022-12-15T08:28:35;47.70;;;22.33;;
9138;SDS011;4604;48.616;9.548;2022-12-15T08:31:03;53.67;;;27.03;;
9138;SDS011;4604;48.616;9.548;2022-12-15T08:33:30;53.43;;;25.27;;
9138;SDS011;4604;48.616;9.548;2022-12-15T08:35:58;51.13;;;24.80;;
9138;SDS011;4604;48.616;9.548;2022-12-15T08:38:26;43.43;;;21.83;;
9138;SDS011;4604;48.616;9.548;2022-12-15T08:40:53;45.17;;;21.77;;
9138;SDS011;4604;48.616;9.548;2022-12-15T08:43:20;42.97;;;20.43;;
9138;SDS011;4604;48.616;9.548;2022-12-15T08:45:47;40.87;;;19.97;;
9138;SDS011;4604;48.616;9.548;2022-12-15T08:48:13;34.67;;;17.97;;
9138;SDS011;4604;48.616;9.548;2022-12-15T08:50:41;39.30;;;18.87;;
9138;SDS011;4604;48.616;9.548;2022-12-15T08:53:09;38.13;;;16.93;;
9138;SDS011;4604;48.616;9.548;2022-12-15T08:55:37;35.73;;;16.93;;
9138;SDS011;4604;48.616;9.548;2022-12-15T08:58:04;41.13;;;19.03;;
9138;SDS011;4604;48.616;9.548;2022-12-15T09:00:31;41.60;;;21.70;;
9138;SDS011;4604;48.616;9.548;2022-12-15T09:02:58;42.77;;;20.97;;
9138;SDS011;4604;48.616;9.548;2022-12-15T09:05:25;40.33;;;19.17;;
9138;SDS011;4604;48.616;9.548;2022-12-15T09:07:52;42.03;;;21.13;;
9138;SDS011;4604;48.616;9.548;2022-12-15T09:10:20;43.23;;;19.80;;
9138;SDS011;4604;48.616;9.548;2022-12-15T09:12:49;40.53;;;19.20;;
9138;SDS011;4604;48.616;9.548;2022-12-15T09:15:16;38.57;;;18.40;;
9138;SDS011;4604;48.616;9.548;2022-12-15T09:17:43;39.17;;;17.90;;
9138;SDS011;4604;48.616;9.548;2022-12-15T09:20:10;39.20;;;18.73;;
9138;SDS011;4604;48.616;9.548;2022-12-15T09:22:38;36.97;;;17.07;;
9138;SDS011;4604;48.616;9.548;2022-12-15T09:25:05;37.67;;;17.53;;
9138;SDS011;4604;48.616;9.548;2022-12-15T09:27:33;39.33;;;18.57;;
9138;SDS011;4604;48.616;9.548;2022-12-15T09:30:01;44.40;;;23.07;;
9138;SDS011;4604;48.616;9.548;2022-12-15T09:32:28;52.87;;;27.47;;
9138;SDS011;4604;48.616;9.548;2022-12-15T09:34:55;48.37;;;22.30;;
9138;SDS011;4604;48.616;9.548;2022-12-15T09:37:21;42.37;;;21.97;;
9138;SDS011;4604;48.616;9.548;2022-12-15T09:39:48;42.77;;;20.33;;
9138;SDS011;4604;48.616;9.548;2022-12-15T09:42:19;37.60;;;19.80;;
9138;SDS011;4604;48.616;9.548;2022-12-15T09:44:50;34.63;;;17.20;;
9138;SDS011;4604;48.616;9.548;2022-12-15T09:47:27;28.33;;;16.13;;
9138;SDS011;4604;48.616;9.548;2022-12-15T09:50:03;43.63;;;22.70;;
9138;SDS011;4604;48.616;9.548;2022-12-15T09:52:32;38.73;;;21.73;;
9138;SDS011;4604;48.616;9.548;2022-12-15T09:55:15;42.03;;;22.40;;
9138;SDS011;4604;48.616;9.548;2022-12-15T09:57:46;47.57;;;23.30;;
9138;SDS011;4604;48.616;9.548;2022-12-15T10:00:17;36.30;;;19.40;;
9138;SDS011;4604;48.616;9.548;2022-12-15T10:05:56;38.83;;;19.93;;
9138;SDS011;4604;48.616;9.548;2022-12-15T10:08:36;38.53;;;20.23;;
9138;SDS011;4604;48.616;9.548;2022-12-15T10:11:12;36.47;;;19.00;;
9138;SDS011;4604;48.616;9.548;2022-12-15T10:13:44;36.13;;;17.40;;
9138;SDS011;4604;48.616;9.548;2022-12-15T10:16:20;30.23;;;17.13;;
9138;SDS011;4604;48.616;9.548;2022-12-15T10:18:59;36.93;;;19.17;;
9138;SDS011;4604;48.616;9.548;2022-12-15T10:21:32;32.67;;;17.30;;
9138;SDS011;4604;48.616;9.548;2022-12-15T10:24:00;31.63;;;16.90;;
9138;SDS011;4604;48.616;9.548;2022-12-15T10:26:38;33.77;;;16.93;;
9138;SDS011;4604;48.616;9.548;2022-12-15T10:29:14;37.80;;;19.37;;
9138;SDS011;4604;48.616;9.548;2022-12-15T10:31:49;35.10;;;17.93;;
9138;SDS011;4604;48.616;9.548;2022-12-15T10:34:23;36.07;;;19.37;;
9138;SDS011;4604;48.616;9.548;2022-12-15T10:36:52;33.60;;;17.70;;
9138;SDS011;4604;48.616;9.548;2022-12-15T10:39:20;38.43;;;19.77;;
9138;SDS011;4604;48.616;9.548;2022-12-15T10:44:40;41.70;;;19.27;;
9138;SDS011;4604;48.616;9.548;2022-12-15T10:47:09;37.77;;;19.40;;
9138;SDS011;4604;48.616;9.548;2022-12-15T10:49:38;48.43;;;20.97;;
9138;SDS011;4604;48.616;9.548;2022-12-15T10:52:11;36.17;;;18.80;;
9138;SDS011;4604;48.616;9.548;2022-12-15T10:54:43;32.90;;;17.77;;
9138;SDS011;4604;48.616;9.548;2022-12-15T10:57:14;49.77;;;23.73;;
9138;SDS011;4604;48.616;9.548;2022-12-15T10:59:42;42.47;;;21.13;;
9138;SDS011;4604;48.616;9.548;2022-12-15T11:05:00;38.60;;;19.27;;
9138;SDS011;4604;48.616;9.548;2022-12-15T11:07:32;39.57;;;21.63;;
9138;SDS011;4604;48.616;9.548;2022-12-15T11:10:02;40.70;;;19.73;;
9138;SDS011;4604;48.616;9.548;2022-12-15T11:12:39;44.03;;;20.93;;
9138;SDS011;4604;48.616;9.548;2022-12-15T11:18:06;41.47;;;20.03;;
9138;SDS011;4604;48.616;9.548;2022-12-15T11:20:44;46.00;;;23.47;;
9138;SDS011;4604;48.616;9.548;2022-12-15T11:23:17;44.47;;;22.97;;
9138;SDS011;4604;48.616;9.548;2022-12-15T11:25:50;41.10;;;21.30;;
9138;SDS011;4604;48.616;9.548;2022-12-15T11:28:25;47.07;;;22.87;;
9138;SDS011;4604;48.616;9.548;2022-12-15T11:30:59;41.67;;;22.77;;
9138;SDS011;4604;48.616;9.548;2022-12-15T11:33:32;40.57;;;20.83;;
9138;SDS011;4604;48.616;9.548;2022-12-15T11:36:03;38.73;;;19.83;;
9138;SDS011;4604;48.616;9.548;2022-12-15T11:38:40;37.47;;;19.07;;
9138;SDS011;4604;48.616;9.548;2022-12-15T11:41:12;37.97;;;19.53;;
9138;SDS011;4604;48.616;9.548;2022-12-15T11:43:53;38.87;;;18.03;;
9138;SDS011;4604;48.616;9.548;2022-12-15T11:46:35;32.13;;;16.97;;
9138;SDS011;4604;48.616;9.548;2022-12-15T11:49:23;33.30;;;15.77;;
9138;SDS011;4604;48.616;9.548;2022-12-15T11:52:10;31.33;;;16.27;;
9138;SDS011;4604;48.616;9.548;2022-12-15T11:54:42;31.33;;;16.07;;
9138;SDS011;4604;48.616;9.548;2022-12-15T11:57:20;34.63;;;16.17;;
9138;SDS011;4604;48.616;9.548;2022-12-15T12:00:06;28.87;;;14.43;;
9138;SDS011;4604;48.616;9.548;2022-12-15T12:05:41;30.27;;;15.20;;
9138;SDS011;4604;48.616;9.548;2022-12-15T12:08:28;32.87;;;16.40;;
9138;SDS011;4604;48.616;9.548;2022-12-15T12:11:04;29.67;;;13.87;;
9138;SDS011;4604;48.616;9.548;2022-12-15T12:13:39;33.27;;;15.53;;
9138;SDS011;4604;48.616;9.548;2022-12-15T12:16:22;30.43;;;14.90;;
9138;SDS011;4604;48.616;9.548;2022-12-15T12:18:58;29.73;;;14.17;;
9138;SDS011;4604;48.616;9.548;2022-12-15T12:21:30;23.70;;;12.53;;
9138;SDS011;4604;48.616;9.548;2022-12-15T12:24:01;27.27;;;13.63;;
9138;SDS011;4604;48.616;9.548;2022-12-15T12:26:34;30.73;;;14.63;;
9138;SDS011;4604;48.616;9.548;2022-12-15T12:29:06;29.90;;;14.13;;
9138;SDS011;4604;48.616;9.548;2022-12-15T12:31:40;29.80;;;13.97;;
9138;SDS011;4604;48.616;9.548;2022-12-15T12:34:18;27.23;;;13.50;;
9138;SDS011;4604;48.616;9.548;2022-12-15T12:36:51;32.00;;;14.73;;
9138;SDS011;4604;48.616;9.548;2022-12-15T12:39:22;29.17;;;14.00;;
9138;SDS011;4604;48.616;9.548;2022-12-15T12:41:53;29.57;;;14.30;;
9138;SDS011;4604;48.616;9.548;2022-12-15T12:44:27;30.43;;;14.07;;
9138;SDS011;4604;48.616;9.548;2022-12-15T12:46:57;29.90;;;13.60;;
9138;SDS011;4604;48.616;9.548;2022-12-15T12:49:32;30.43;;;14.47;;
9138;SDS011;4604;48.616;9.548;2022-12-15T12:52:03;26.83;;;14.30;;
9138;SDS011;4604;48.616;9.548;2022-12-15T12:57:28;31.37;;;14.20;;
9138;SDS011;4604;48.616;9.548;2022-12-15T12:59:59;30.33;;;13.33;;
9138;SDS011;4604;48.616;9.548;2022-12-15T13:02:42;28.93;;;14.33;;
9138;SDS011;4604;48.616;9.548;2022-12-15T13:05:26;31.57;;;14.73;;
9138;SDS011;4604;48.616;9.548;2022-12-15T13:07:55;27.83;;;14.13;;
9138;SDS011;4604;48.616;9.548;2022-12-15T13:10:45;33.63;;;14.53;;
9138;SDS011;4604;48.616;9.548;2022-12-15T13:13:20;33.00;;;14.87;;
9138;SDS011;4604;48.616;9.548;2022-12-15T13:16:04;29.80;;;13.73;;
9138;SDS011;4604;48.616;9.548;2022-12-15T13:24:17;29.20;;;14.63;;
9138;SDS011;4604;48.616;9.548;2022-12-15T13:26:52;27.87;;;14.20;;
9138;SDS011;4604;48.616;9.548;2022-12-15T13:29:29;29.60;;;14.03;;
9138;SDS011;4604;48.616;9.548;2022-12-15T13:31:56;34.70;;;15.57;;
9138;SDS011;4604;48.616;9.548;2022-12-15T13:34:24;45.17;;;18.67;;
9138;SDS011;4604;48.616;9.548;2022-12-15T13:36:54;33.17;;;16.30;;
9138;SDS011;4604;48.616;9.548;2022-12-15T13:42:32;27.83;;;14.53;;
9138;SDS011;4604;48.616;9.548;2022-12-15T13:45:14;28.80;;;13.53;;
9138;SDS011;4604;48.616;9.548;2022-12-15T13:48:22;24.73;;;12.83;;
9138;SDS011;4604;48.616;9.548;2022-12-15T13:50:55;25.93;;;12.30;;
9138;SDS011;4604;48.616;9.548;2022-12-15T13:53:27;27.53;;;13.47;;
9138;SDS011;4604;48.616;9.548;2022-12-15T13:56:04;26.83;;;13.17;;
9138;SDS011;4604;48.616;9.548;2022-12-15T13:58:45;53.93;;;22.37;;
9138;SDS011;4604;48.616;9.548;2022-12-15T14:01:19;35.73;;;17.10;;
9138;SDS011;4604;48.616;9.548;2022-12-15T14:03:57;28.97;;;14.97;;
9138;SDS011;4604;48.616;9.548;2022-12-15T14:06:45;29.77;;;14.97;;
9138;SDS011;4604;48.616;9.548;2022-12-15T14:09:15;30.60;;;14.67;;
9138;SDS011;4604;48.616;9.548;2022-12-15T14:11:46;31.00;;;13.33;;
9138;SDS011;4604;48.616;9.548;2022-12-15T14:14:20;22.60;;;12.03;;
9138;SDS011;4604;48.616;9.548;2022-12-15T14:16:54;26.53;;;13.17;;
9138;SDS011;4604;48.616;9.548;2022-12-15T14:19:24;36.27;;;18.17;;
9138;SDS011;4604;48.616;9.548;2022-12-15T14:21:52;30.37;;;15.30;;
9138;SDS011;4604;48.616;9.548;2022-12-15T14:24:22;36.47;;;19.30;;
9138;SDS011;4604;48.616;9.548;2022-12-15T14:26:50;28.70;;;14.20;;
9138;SDS011;4604;48.616;9.548;2022-12-15T14:29:17;25.50;;;13.00;;
9138;SDS011;4604;48.616;9.548;2022-12-15T14:31:47;34.30;;;17.00;;
9138;SDS011;4604;48.616;9.548;2022-12-15T14:34:18;28.23;;;13.97;;
9138;SDS011;4604;48.616;9.548;2022-12-15T14:36:49;28.97;;;14.23;;
9138;SDS011;4604;48.616;9.548;2022-12-15T14:39:18;25.13;;;12.77;;
9138;SDS011;4604;48.616;9.548;2022-12-15T14:41:48;29.83;;;14.63;;
9138;SDS011;4604;48.616;9.548;2022-12-15T14:44:19;25.50;;;13.57;;
9138;SDS011;4604;48.616;9.548;2022-12-15T14:46:56;29.63;;;14.70;;
9138;SDS011;4604;48.616;9.548;2022-12-15T14:49:24;27.77;;;14.57;;
9138;SDS011;4604;48.616;9.548;2022-12-15T14:51:56;27.90;;;13.33;;
9138;SDS011;4604;48.616;9.548;2022-12-15T14:54:29;28.23;;;15.13;;
9138;SDS011;4604;48.616;9.548;2022-12-15T14:56:59;32.07;;;14.13;;
9138;SDS011;4604;48.616;9.548;2022-12-15T14:59:29;27.73;;;14.37;;
9138;SDS011;4604;48.616;9.548;2022-12-15T15:02:05;29.50;;;14.70;;
9138;SDS011;4604;48.616;9.548;2022-12-15T15:04:38;26.23;;;12.27;;
9138;SDS011;4604;48.616;9.548;2022-12-15T15:07:06;23.60;;;11.80;;
9138;SDS011;4604;48.616;9.548;2022-12-15T15:09:41;23.10;;;11.47;;
9138;SDS011;4604;48.616;9.548;2022-12-15T15:12:12;23.50;;;12.67;;
9138;SDS011;4604;48.616;9.548;2022-12-15T15:14:41;22.97;;;11.80;;
9138;SDS011;4604;48.616;9.548;2022-12-15T15:17:15;20.33;;;11.00;;
9138;SDS011;4604;48.616;9.548;2022-12-15T15:19:50;23.30;;;12.20;;
9138;SDS011;4604;48.616;9.548;2022-12-15T15:22:26;22.30;;;11.97;;
9138;SDS011;4604;48.616;9.548;2022-12-15T15:24:58;22.03;;;11.07;;
9138;SDS011;4604;48.616;9.548;2022-12-15T15:27:28;23.83;;;10.37;;
9138;SDS011;4604;48.616;9.548;2022-12-15T15:30:10;30.37;;;14.90;;
9138;SDS011;4604;48.616;9.548;2022-12-15T15:32:52;31.17;;;15.57;;
9138;SDS011;4604;48.616;9.548;2022-12-15T15:35:20;34.10;;;15.60;;
9138;SDS011;4604;48.616;9.548;2022-12-15T15:37:49;42.30;;;20.27;;
9138;SDS011;4604;48.616;9.548;2022-12-15T15:40:16;32.50;;;15.23;;
9138;SDS011;4604;48.616;9.548;2022-12-15T15:42:44;27.47;;;13.80;;
9138;SDS011;4604;48.616;9.548;2022-12-15T15:45:13;25.07;;;12.83;;
9138;SDS011;4604;48.616;9.548;2022-12-15T15:47:40;19.67;;;10.57;;
9138;SDS011;4604;48.616;9.548;2022-12-15T15:50:13;23.50;;;11.80;;
9138;SDS011;4604;48.616;9.548;2022-12-15T15:52:41;23.40;;;10.63;;
9138;SDS011;4604;48.616;9.548;2022-12-15T15:55:11;19.93;;;10.53;;